Accueil
METAR-TAF:

METAR-TAF

Aéroports :

Aérodrome de La Roche-sur-Yon - Les Ajoncs

La Roche-sur-Yon, France

latitude: 46-42N, longitude: 001-23W, altitude: 90 m

Observation

Le bulletin a été fait il y a 33 minutes, à 02:30 UTC
Vent 6 kt de nord/nord-ouest
Température 13°C
Humidité 94%
Pression 1020 hPa
Visibilité 10 km ou plus
pas de nuages en-dessous de 1500 mètres et pas de cumulonimbus.

METAR: LFRI 170230Z AUTO 33006KT CAVOK 13/12 Q1020

Heure: 05:03 (03:03 UTC)

Prévision

Le bulletin a été fait il y a 10 heures et 3 minutes, à 17:00 UTC
Prévision valable du 16 à 18 UTC au 17 à 18 UTC
Vent 12 kt de nord-ouest
Visibilité 10 km ou plus
pas de nuages en-dessous de 1500 mètres et pas de cumulonimbus.
Temporairement
du 16 à 21 UTC au 17 à 01 UTC
Visibilité: 4000 m
Nuages fragmentés à une hauteur de 1200 ft
pluie faible

TAF: LFRI 161700Z 1618/1718 31012KT CAVOK TEMPO 1621/1701 4000 -RA BKN012

Observations et prévisions météorologiques de plus de 4000 aéroports (messages METAR et TAF).

Les stations disponibles sont représentées par des disques jaunes et rouges sur la carte.

Passer la souris dessus pour voir le nom de la station.

Cliquer dessus pour voir les observations et prévisions météorologiques.

Pour changer de carte: cliquez sur les boutons verts avec une croix noire pour zoomer, sur le bouton vert avec un tiret pour effectuer un zoom arrière, ou sur les flèches vertes pour les cartes adjacentes.


METAR-TAF: